Time;durP1;ratioP1;P1;durP2;ratioP2;P2;SDS_P1;SDS_P2;PMS_P1;PMS_P2;Temp;Humidity;BMP_temperature;BMP_pressure;BME280_temperature;BME280_humidity;BME280_pressure;Samples;Min_cycle;Max_cycle;Signal;HPM_P1;HPM_P2
2022/02/14 00:00:47;;;;;;;9.02;7.30;;;3.90;99.90;;;;;;5134518;27;20468;-81
2022/02/14 00:03:12;;;;;;;11.13;8.23;;;3.90;99.90;;;;;;5135113;27;20364;-81
2022/02/14 00:05:38;;;;;;;11.82;7.88;;;4.00;99.90;;;;;;5114794;27;20385;-81
2022/02/14 00:08:04;;;;;;;14.90;8.20;;;4.00;99.90;;;;;;5134470;27;20726;-82
2022/02/14 00:10:29;;;;;;;10.90;7.95;;;4.10;99.90;;;;;;5134367;27;20410;-81
2022/02/14 00:12:55;;;;;;;11.57;8.07;;;4.10;99.90;;;;;;5134174;27;20397;-82
2022/02/14 00:15:21;;;;;;;12.20;8.23;;;4.10;99.90;;;;;;5134115;27;20894;-81
2022/02/14 00:17:47;;;;;;;11.27;8.10;;;4.20;99.90;;;;;;5134584;27;20935;-81
2022/02/14 00:20:13;;;;;;;10.88;7.93;;;4.30;99.90;;;;;;5133539;27;20403;-82
2022/02/14 00:22:40;;;;;;;11.63;7.85;;;4.40;99.90;;;;;;5116098;27;20438;-82
2022/02/14 00:25:07;;;;;;;10.13;7.95;;;4.40;99.90;;;;;;5135625;27;20436;-81
2022/02/14 00:27:33;;;;;;;11.07;7.28;;;4.40;99.90;;;;;;5135901;27;20361;-80
2022/02/14 00:29:59;;;;;;;10.38;7.90;;;4.40;99.90;;;;;;5137402;27;20731;-82
2022/02/14 00:32:25;;;;;;;11.73;8.20;;;4.40;99.90;;;;;;5136197;27;20396;-82
2022/02/14 00:34:51;;;;;;;13.05;8.35;;;4.50;99.90;;;;;;5136601;27;20384;-81
2022/02/14 00:37:21;;;;;;;8.90;7.75;;;4.50;99.90;;;;;;5134960;27;20882;-82
2022/02/14 00:39:46;;;;;;;12.10;7.88;;;4.50;99.90;;;;;;5116696;27;20389;-81
2022/02/14 00:42:13;;;;;;;11.27;8.27;;;4.50;99.90;;;;;;5134351;27;20396;-82
2022/02/14 00:44:38;;;;;;;12.20;8.60;;;4.60;99.90;;;;;;5116315;27;20886;-82
2022/02/14 00:47:04;;;;;;;10.23;7.80;;;4.50;99.90;;;;;;5134775;27;20424;-81
2022/02/14 00:49:30;;;;;;;10.33;7.73;;;4.50;99.90;;;;;;5133373;27;20939;-81
2022/02/14 00:51:56;;;;;;;12.95;8.45;;;4.50;99.90;;;;;;5133489;27;20373;-82
2022/02/14 00:54:22;;;;;;;8.93;7.77;;;4.60;99.90;;;;;;5134607;27;20361;-79
2022/02/14 00:56:47;;;;;;;10.30;7.60;;;4.50;99.90;;;;;;5133153;27;20381;-81
2022/02/14 00:59:13;;;;;;;11.27;7.95;;;4.60;99.90;;;;;;5134244;27;20401;-82
2022/02/14 01:01:39;;;;;;;9.75;7.80;;;4.60;99.90;;;;;;5133358;27;20376;-81
2022/02/14 01:04:05;;;;;;;10.45;7.82;;;4.50;99.90;;;;;;5133679;27;20380;-81
2022/02/14 01:06:30;;;;;;;12.82;7.97;;;4.50;99.90;;;;;;5113285;27;20430;-82
2022/02/14 01:08:56;;;;;;;10.90;8.20;;;4.50;99.90;;;;;;5133116;27;20396;-81
2022/02/14 01:11:22;;;;;;;10.37;8.07;;;4.40;99.90;;;;;;5133535;27;20843;-81
2022/02/14 01:13:49;;;;;;;11.10;7.75;;;4.50;99.90;;;;;;5133756;27;20428;-81
2022/02/14 01:16:14;;;;;;;11.00;7.57;;;4.40;99.90;;;;;;5132989;27;20763;-82
2022/02/14 01:18:40;;;;;;;11.03;7.93;;;4.40;99.90;;;;;;5114169;27;20369;-80
2022/02/14 01:21:05;;;;;;;12.10;7.83;;;4.40;99.90;;;;;;5132258;27;20422;-81
2022/02/14 01:23:33;;;;;;;10.60;7.47;;;4.30;99.90;;;;;;5139002;27;20369;-81
2022/02/14 01:25:58;;;;;;;10.98;7.75;;;4.20;99.90;;;;;;5139806;27;20369;-82
2022/02/14 01:28:24;;;;;;;10.30;7.78;;;4.30;99.90;;;;;;5120046;27;21259;-81
2022/02/14 01:30:50;;;;;;;9.38;7.70;;;4.20;99.90;;;;;;5121002;27;20450;-81
2022/02/14 01:33:15;;;;;;;9.77;7.63;;;4.20;99.90;;;;;;5118023;27;20425;-81
2022/02/14 01:35:41;;;;;;;9.83;7.83;;;4.20;99.90;;;;;;5135957;27;20369;-80
2022/02/14 01:38:06;;;;;;;9.70;7.25;;;4.20;99.90;;;;;;5118269;27;20389;-81
2022/02/14 01:40:33;;;;;;;11.95;7.40;;;4.20;99.90;;;;;;5119569;27;20393;-81
2022/02/14 01:42:59;;;;;;;10.18;7.72;;;4.20;99.90;;;;;;5137203;27;20428;-82
2022/02/14 01:45:24;;;;;;;10.13;7.28;;;4.20;99.90;;;;;;5139160;27;20374;-79
2022/02/14 01:47:50;;;;;;;9.50;7.07;;;4.20;99.90;;;;;;5132198;27;20938;-81
2022/02/14 01:50:16;;;;;;;8.77;7.00;;;4.20;99.90;;;;;;5113402;27;20412;-81
2022/02/14 01:52:43;;;;;;;9.07;7.22;;;4.10;99.90;;;;;;5131123;27;20771;-81
2022/02/14 01:55:10;;;;;;;13.50;8.05;;;4.10;99.90;;;;;;5112735;27;20455;-81
2022/02/14 01:57:37;;;;;;;9.80;7.47;;;4.10;99.90;;;;;;5114261;27;20801;-80
2022/02/14 02:00:14;;;;;;;10.63;7.00;;;4.10;99.90;;;;;;5132020;27;20457;-82
2022/02/14 02:02:41;;;;;;;8.80;7.05;;;4.20;99.90;;;;;;5131937;27;20361;-81
2022/02/14 02:05:07;;;;;;;10.75;7.55;;;4.10;99.90;;;;;;5131106;27;20372;-81
2022/02/14 02:07:33;;;;;;;9.68;7.43;;;4.10;99.90;;;;;;5112737;28;20385;-82
2022/02/14 02:09:59;;;;;;;8.90;6.70;;;4.10;99.90;;;;;;5112564;27;20970;-82
2022/02/14 02:12:25;;;;;;;9.93;6.90;;;4.10;99.90;;;;;;5130892;27;20901;-81
2022/02/14 02:14:52;;;;;;;9.77;7.35;;;4.10;99.90;;;;;;5131091;27;20383;-81
2022/02/14 02:17:18;;;;;;;8.93;6.55;;;4.10;99.90;;;;;;5130524;27;20372;-81
2022/02/14 02:19:44;;;;;;;10.00;6.75;;;4.10;99.90;;;;;;5130133;27;20365;-81
2022/02/14 02:22:09;;;;;;;10.25;7.22;;;4.20;99.90;;;;;;5131565;27;20385;-81
2022/02/14 02:24:51;;;;;;;9.53;6.70;;;4.10;99.90;;;;;;5130925;28;20423;-81
2022/02/14 02:27:18;;;;;;;7.53;6.50;;;4.10;99.90;;;;;;5113500;28;20377;-81
2022/02/14 02:29:44;;;;;;;10.32;6.68;;;4.10;99.90;;;;;;5131502;28;20825;-80
2022/02/14 02:32:11;;;;;;;8.95;6.70;;;4.10;99.90;;;;;;5130770;28;20385;-82
2022/02/14 02:34:42;;;;;;;9.88;7.05;;;4.10;99.90;;;;;;5114686;28;20376;-80
2022/02/14 02:37:10;;;;;;;8.13;6.70;;;4.10;99.90;;;;;;5114952;28;20388;-81
2022/02/14 02:39:36;;;;;;;14.15;6.68;;;4.00;99.90;;;;;;5134049;28;20460;-80
2022/02/14 02:42:04;;;;;;;9.70;7.03;;;4.00;99.90;;;;;;5132712;28;20394;-80
2022/02/14 02:44:32;;;;;;;7.55;6.60;;;4.00;99.90;;;;;;5132754;28;20375;-81
2022/02/14 02:46:59;;;;;;;8.70;6.43;;;4.00;99.90;;;;;;5132232;28;20434;-82
2022/02/14 02:49:25;;;;;;;9.85;6.35;;;4.00;99.90;;;;;;5114890;28;20777;-81
2022/02/14 02:51:52;;;;;;;8.52;6.30;;;4.10;99.90;;;;;;5133625;27;20353;-81
2022/02/14 02:54:20;;;;;;;9.15;6.22;;;4.10;99.90;;;;;;5132435;28;20361;-81
2022/02/14 02:56:47;;;;;;;7.55;6.03;;;4.10;99.90;;;;;;5131985;28;20397;-82
2022/02/14 02:59:13;;;;;;;8.38;6.57;;;4.10;99.90;;;;;;5132364;28;20369;-81
2022/02/14 03:01:40;;;;;;;10.15;6.15;;;4.10;99.90;;;;;;5132160;28;20366;-81
2022/02/14 03:04:08;;;;;;;7.38;5.78;;;4.10;99.90;;;;;;5114608;28;20847;-81
2022/02/14 03:06:34;;;;;;;8.70;6.03;;;4.10;99.90;;;;;;5132509;28;20453;-82
2022/02/14 03:09:00;;;;;;;8.15;6.43;;;4.20;99.90;;;;;;5132669;27;20381;-81
2022/02/14 03:11:26;;;;;;;9.95;6.15;;;4.10;99.90;;;;;;5114520;28;20468;-81
2022/02/14 03:13:52;;;;;;;8.95;5.90;;;4.10;99.90;;;;;;5130957;28;20484;-80
2022/02/14 03:16:18;;;;;;;7.65;5.65;;;4.00;99.90;;;;;;5109820;28;20737;-81
2022/02/14 03:18:44;;;;;;;6.88;5.40;;;4.10;99.90;;;;;;5131133;27;20380;-81
2022/02/14 03:21:11;;;;;;;9.50;5.97;;;4.10;99.90;;;;;;5112957;28;20380;-81
2022/02/14 03:23:37;;;;;;;8.75;5.80;;;4.10;99.90;;;;;;5132986;28;20369;-81
2022/02/14 03:26:03;;;;;;;7.55;5.45;;;4.10;99.90;;;;;;5130973;28;20385;-81
2022/02/14 03:28:29;;;;;;;7.53;5.65;;;4.10;99.90;;;;;;5133008;28;20392;-81
2022/02/14 03:30:55;;;;;;;8.17;5.30;;;4.10;99.90;;;;;;5133638;27;20723;-81
2022/02/14 03:33:20;;;;;;;10.77;6.27;;;4.10;99.90;;;;;;5137148;27;20392;-81
2022/02/14 03:35:47;;;;;;;7.27;5.40;;;4.10;99.90;;;;;;5135303;27;20470;-81
2022/02/14 03:38:13;;;;;;;10.75;5.90;;;4.10;99.90;;;;;;5119365;27;21015;-82
2022/02/14 03:40:40;;;;;;;8.57;5.47;;;4.10;99.90;;;;;;5116567;27;20387;-81
2022/02/14 03:43:10;;;;;;;6.05;5.25;;;4.10;99.90;;;;;;5137882;27;20871;-80
2022/02/14 03:45:38;;;;;;;8.63;5.18;;;4.10;99.90;;;;;;5136816;27;20477;-81
2022/02/14 03:48:04;;;;;;;6.38;5.18;;;4.00;99.90;;;;;;5135247;27;20368;-81
2022/02/14 03:50:30;;;;;;;9.23;5.15;;;4.10;99.90;;;;;;5135492;27;20439;-81
2022/02/14 03:52:56;;;;;;;6.82;5.07;;;4.00;99.90;;;;;;5116983;27;20405;-82
2022/02/14 03:55:22;;;;;;;6.93;5.10;;;4.00;99.90;;;;;;5135279;27;20870;-81
2022/02/14 03:57:50;;;;;;;8.80;5.35;;;3.90;99.90;;;;;;5121311;27;20370;-80
2022/02/14 04:00:17;;;;;;;7.67;5.57;;;3.80;99.90;;;;;;5142712;27;20410;-79
2022/02/14 04:02:43;;;;;;;7.47;5.15;;;3.80;99.90;;;;;;5117904;27;21037;-81
2022/02/14 04:05:14;;;;;;;7.63;5.28;;;3.80;99.90;;;;;;5135032;27;20882;-81
2022/02/14 04:07:40;;;;;;;8.27;5.57;;;3.90;99.90;;;;;;5134864;27;20373;-81
2022/02/14 04:10:08;;;;;;;8.98;5.18;;;3.80;99.90;;;;;;5135063;27;20422;-81
2022/02/14 04:12:34;;;;;;;9.50;5.40;;;3.80;99.90;;;;;;5115557;27;20393;-81
2022/02/14 04:15:00;;;;;;;5.40;4.78;;;3.80;99.90;;;;;;5135144;27;20389;-81
2022/02/14 04:17:25;;;;;;;8.50;5.00;;;3.80;99.90;;;;;;5133208;27;20374;-81
2022/02/14 04:19:52;;;;;;;8.30;5.03;;;3.80;99.90;;;;;;5115630;27;20381;-82
2022/02/14 04:22:18;;;;;;;6.47;5.05;;;3.70;99.90;;;;;;5133045;27;20405;-82
2022/02/14 04:24:44;;;;;;;7.85;5.28;;;3.80;99.90;;;;;;5133269;27;20462;-81
2022/02/14 04:27:09;;;;;;;6.80;5.17;;;3.80;99.90;;;;;;5133390;27;20874;-82
2022/02/14 04:29:35;;;;;;;6.80;4.88;;;3.70;99.90;;;;;;5114733;27;20401;-81
2022/02/14 04:32:01;;;;;;;6.65;5.22;;;3.70;99.90;;;;;;5134294;27;20374;-81
2022/02/14 04:34:26;;;;;;;8.48;5.28;;;3.70;99.90;;;;;;5114256;27;20369;-81
2022/02/14 04:36:52;;;;;;;9.60;5.03;;;3.70;99.90;;;;;;5132897;27;20353;-81
2022/02/14 04:39:19;;;;;;;7.00;5.33;;;3.70;99.90;;;;;;5133114;27;20392;-82
2022/02/14 04:41:44;;;;;;;6.93;4.88;;;3.70;99.90;;;;;;5132807;27;20434;-81
2022/02/14 04:44:11;;;;;;;9.05;4.93;;;3.60;99.90;;;;;;5113646;27;20767;-81
2022/02/14 04:46:38;;;;;;;8.75;5.28;;;3.60;99.90;;;;;;5131427;27;20429;-82
2022/02/14 04:49:06;;;;;;;8.20;5.47;;;3.70;99.90;;;;;;5134495;27;20791;-81
2022/02/14 04:51:33;;;;;;;6.70;4.70;;;3.70;99.90;;;;;;5135619;27;20397;-81
2022/02/14 04:53:59;;;;;;;7.07;5.07;;;3.70;99.90;;;;;;5115291;27;20405;-82
2022/02/14 04:56:24;;;;;;;8.67;5.17;;;3.70;99.90;;;;;;5134228;27;20367;-84
2022/02/14 04:58:50;;;;;;;6.68;4.82;;;3.70;99.90;;;;;;5134921;27;20361;-82
2022/02/14 05:01:16;;;;;;;6.82;4.80;;;3.70;99.90;;;;;;5135600;27;20361;-81
2022/02/14 05:03:42;;;;;;;7.32;4.78;;;3.70;99.90;;;;;;5116974;27;20893;-81
2022/02/14 05:06:08;;;;;;;7.57;4.50;;;3.60;99.90;;;;;;5116916;27;20376;-80
2022/02/14 05:08:33;;;;;;;7.65;4.50;;;3.60;99.90;;;;;;5133763;27;20388;-82
2022/02/14 05:10:59;;;;;;;10.38;4.93;;;3.60;99.90;;;;;;5115842;27;20380;-81
2022/02/14 05:13:25;;;;;;;6.43;4.35;;;3.60;99.90;;;;;;5116178;27;20763;-81
2022/02/14 05:15:51;;;;;;;6.70;4.50;;;3.60;99.90;;;;;;5134113;27;20583;-81
2022/02/14 05:18:16;;;;;;;8.68;4.55;;;3.60;99.90;;;;;;5133804;27;20369;-81
2022/02/14 05:20:42;;;;;;;7.05;4.40;;;3.60;99.90;;;;;;5114354;27;20939;-81
2022/02/14 05:23:08;;;;;;;6.10;4.70;;;3.60;99.90;;;;;;5134949;27;20372;-82
2022/02/14 05:25:34;;;;;;;8.40;4.70;;;3.50;99.90;;;;;;5133155;27;20400;-81
2022/02/14 05:27:59;;;;;;;7.73;4.63;;;3.60;99.90;;;;;;5134173;27;20722;-82
2022/02/14 05:30:25;;;;;;;6.40;5.00;;;3.50;99.90;;;;;;5115851;27;20381;-82
2022/02/14 05:32:51;;;;;;;6.80;4.50;;;3.70;99.90;;;;;;5113844;27;20466;-81
2022/02/14 05:35:17;;;;;;;7.27;4.27;;;3.60;99.90;;;;;;5114091;27;20380;-81
2022/02/14 05:37:43;;;;;;;7.22;4.30;;;3.60;99.90;;;;;;5115220;27;20471;-81
2022/02/14 05:40:09;;;;;;;6.90;4.20;;;3.60;99.90;;;;;;5114086;27;20402;-81
2022/02/14 05:42:34;;;;;;;6.77;4.33;;;3.50;99.90;;;;;;5116115;27;20463;-81
2022/02/14 05:45:00;;;;;;;7.07;4.50;;;3.50;99.90;;;;;;5135220;27;20369;-82
2022/02/14 05:47:26;;;;;;;6.13;4.27;;;3.50;99.90;;;;;;5133314;27;20421;-81
2022/02/14 05:49:51;;;;;;;6.77;4.60;;;3.50;99.90;;;;;;5116842;27;20372;-81
2022/02/14 05:52:17;;;;;;;7.25;4.38;;;3.50;99.90;;;;;;5135325;27;20892;-82
2022/02/14 05:54:43;;;;;;;6.20;4.38;;;3.50;99.90;;;;;;5118491;27;20465;-82
2022/02/14 05:57:10;;;;;;;7.17;4.43;;;3.50;99.90;;;;;;5128975;27;20384;-81
2022/02/14 05:59:36;;;;;;;5.50;4.07;;;3.50;99.90;;;;;;5115977;27;20368;-81
2022/02/14 06:02:02;;;;;;;6.55;4.05;;;3.40;99.90;;;;;;5115314;28;20921;-80
2022/02/14 06:04:29;;;;;;;9.35;4.30;;;3.40;99.90;;;;;;5112646;28;20442;-82
2022/02/14 06:06:55;;;;;;;5.65;4.00;;;3.40;99.90;;;;;;5112501;28;21210;-81
2022/02/14 06:09:22;;;;;;;5.80;4.28;;;3.40;99.90;;;;;;5112929;28;20390;-80
2022/02/14 06:11:47;;;;;;;6.35;4.25;;;3.40;99.90;;;;;;5093341;28;20420;-81
2022/02/14 06:14:15;;;;;;;6.93;4.28;;;3.30;99.90;;;;;;5112817;28;20398;-80
2022/02/14 06:16:41;;;;;;;5.82;3.83;;;3.40;99.90;;;;;;5112645;28;20547;-81
2022/02/14 06:19:07;;;;;;;6.27;4.17;;;3.40;99.90;;;;;;5111704;28;20375;-81
2022/02/14 06:21:32;;;;;;;7.20;3.93;;;3.50;99.90;;;;;;5091966;28;20432;-81
2022/02/14 06:23:58;;;;;;;7.55;4.30;;;3.40;99.90;;;;;;5108594;28;20464;-81
2022/02/14 06:26:24;;;;;;;6.85;4.03;;;3.40;99.90;;;;;;5073806;28;20383;-81
2022/02/14 06:28:49;;;;;;;9.02;4.45;;;3.50;99.90;;;;;;5091465;28;20376;-80
2022/02/14 06:31:15;;;;;;;7.38;4.13;;;3.50;99.90;;;;;;5091434;28;20383;-80
2022/02/14 06:33:41;;;;;;;5.87;3.63;;;3.50;99.90;;;;;;5091165;28;20401;-81
2022/02/14 06:36:07;;;;;;;6.30;4.30;;;3.50;99.90;;;;;;5091414;28;20373;-80
2022/02/14 06:38:34;;;;;;;6.07;4.28;;;3.50;99.90;;;;;;5091489;28;20400;-80
2022/02/14 06:41:00;;;;;;;8.48;4.40;;;3.50;99.90;;;;;;5071946;28;20743;-81
2022/02/14 06:43:33;;;;;;;5.47;3.80;;;3.50;99.90;;;;;;5090748;28;20433;-82
2022/02/14 06:45:58;;;;;;;6.30;4.18;;;3.70;99.90;;;;;;5074885;28;20388;-81
2022/02/14 06:48:24;;;;;;;8.05;4.18;;;3.70;99.90;;;;;;5094458;28;20378;-81
2022/02/14 06:50:50;;;;;;;5.82;4.03;;;3.70;99.90;;;;;;5074694;28;20376;-81
2022/02/14 06:53:15;;;;;;;7.37;4.23;;;3.80;99.90;;;;;;5073808;28;20925;-81
2022/02/14 06:55:41;;;;;;;6.90;4.27;;;3.90;99.90;;;;;;5091833;28;20488;-80
2022/02/14 06:58:09;;;;;;;8.93;4.53;;;3.90;99.90;;;;;;5074795;28;20392;-81
2022/02/14 07:00:34;;;;;;;5.95;3.92;;;3.90;99.90;;;;;;5073755;28;20429;-82
2022/02/14 07:03:00;;;;;;;10.98;4.25;;;4.00;99.90;;;;;;5092740;28;20463;-81
2022/02/14 07:05:26;;;;;;;5.73;4.23;;;4.00;99.90;;;;;;5090704;28;20455;-81
2022/02/14 07:07:51;;;;;;;5.70;4.20;;;4.10;99.90;;;;;;5095800;28;20921;-82
2022/02/14 07:10:17;;;;;;;6.43;4.10;;;4.20;99.90;;;;;;5098378;28;20381;-81
2022/02/14 07:12:44;;;;;;;6.15;4.13;;;4.30;99.90;;;;;;5079020;28;20432;-81
2022/02/14 07:15:11;;;;;;;7.57;4.38;;;4.40;99.90;;;;;;5082628;28;20460;-80
2022/02/14 07:17:37;;;;;;;6.25;4.60;;;4.50;99.90;;;;;;5075386;28;20384;-81
2022/02/14 07:20:03;;;;;;;6.85;4.20;;;4.50;99.90;;;;;;5078619;28;20446;-82
2022/02/14 07:22:28;;;;;;;6.95;4.57;;;4.60;99.90;;;;;;5093021;28;20875;-81
2022/02/14 07:24:54;;;;;;;7.77;5.40;;;4.70;99.90;;;;;;5093792;28;20384;-82
2022/02/14 07:27:20;;;;;;;8.68;6.15;;;4.70;99.90;;;;;;5073658;28;20388;-81
2022/02/14 07:29:45;;;;;;;9.95;7.82;;;4.80;99.90;;;;;;5074125;28;20811;-81
2022/02/14 07:32:11;;;;;;;8.87;5.90;;;4.80;99.90;;;;;;5093710;28;20395;-81
2022/02/14 07:34:37;;;;;;;7.87;5.00;;;4.80;99.90;;;;;;5098013;28;20380;-82
2022/02/14 07:37:03;;;;;;;8.75;6.78;;;5.00;99.90;;;;;;5112466;28;20485;-82
2022/02/14 07:39:30;;;;;;;7.63;6.07;;;5.10;99.90;;;;;;5112925;28;20398;-82
2022/02/14 07:41:56;;;;;;;9.90;4.63;;;5.20;99.90;;;;;;5112731;28;20371;-82
2022/02/14 07:44:22;;;;;;;8.13;4.80;;;5.30;99.90;;;;;;5113723;28;20408;-82
2022/02/14 07:46:51;;;;;;;8.40;5.97;;;5.30;99.90;;;;;;5112253;28;20537;-82
2022/02/14 07:49:17;;;;;;;9.18;5.75;;;5.40;99.90;;;;;;5091656;28;20382;-81
2022/02/14 07:51:43;;;;;;;7.32;4.70;;;5.50;99.90;;;;;;5094664;28;20949;-81
2022/02/14 07:54:09;;;;;;;9.65;5.05;;;5.40;99.90;;;;;;5098013;28;20442;-82
2022/02/14 07:56:34;;;;;;;8.23;4.97;;;5.60;99.90;;;;;;5083681;28;20402;-82
2022/02/14 07:59:02;;;;;;;6.87;5.00;;;5.70;99.90;;;;;;5097794;28;20487;-81
2022/02/14 08:01:27;;;;;;;8.00;5.30;;;5.70;99.90;;;;;;5100593;28;21062;-83
2022/02/14 08:03:53;;;;;;;7.50;5.20;;;5.90;99.90;;;;;;5097521;28;20403;-82
2022/02/14 08:06:19;;;;;;;10.13;6.47;;;6.00;99.90;;;;;;5091762;28;20485;-82
2022/02/14 08:08:44;;;;;;;5.25;4.10;;;6.00;99.90;;;;;;5090502;28;20409;-83
2022/02/14 08:11:10;;;;;;;5.70;4.87;;;6.10;99.90;;;;;;5091906;28;20399;-82
2022/02/14 08:13:35;;;;;;;7.93;4.35;;;6.10;99.90;;;;;;5080154;28;20428;-81
2022/02/14 08:16:01;;;;;;;5.97;4.60;;;6.20;99.90;;;;;;5113151;28;20795;-82
2022/02/14 08:18:26;;;;;;;7.17;4.30;;;6.30;99.90;;;;;;5098102;28;20373;-82
2022/02/14 08:20:52;;;;;;;9.47;4.27;;;6.30;99.90;;;;;;5108872;28;20424;-83
2022/02/14 08:23:18;;;;;;;6.80;4.63;;;6.40;99.90;;;;;;5095179;28;20432;-82
2022/02/14 08:25:44;;;;;;;6.67;4.50;;;6.50;99.90;;;;;;5112422;28;20477;-82
2022/02/14 08:28:10;;;;;;;10.57;8.40;;;6.50;99.90;;;;;;5113157;28;20387;-82
2022/02/14 08:30:35;;;;;;;11.70;8.90;;;6.60;99.90;;;;;;5108442;28;20367;-82
2022/02/14 08:33:01;;;;;;;6.25;4.20;;;6.70;99.90;;;;;;5092896;28;20407;-82
2022/02/14 08:35:29;;;;;;;6.90;4.97;;;6.80;99.90;;;;;;5112338;28;20381;-81
2022/02/14 08:37:55;;;;;;;8.48;4.47;;;6.80;99.90;;;;;;5106835;28;20419;-82
2022/02/14 08:40:20;;;;;;;6.53;3.92;;;7.00;99.90;;;;;;5073675;28;20383;-82
2022/02/14 08:42:46;;;;;;;5.43;4.07;;;7.00;99.90;;;;;;5112376;28;20913;-83
2022/02/14 08:45:12;;;;;;;6.93;4.05;;;7.10;99.90;;;;;;5114175;28;20402;-82
2022/02/14 08:47:38;;;;;;;7.23;3.90;;;7.10;99.90;;;;;;5112523;28;20378;-82
2022/02/14 08:50:04;;;;;;;5.72;4.32;;;7.20;99.90;;;;;;5094164;28;20888;-82
2022/02/14 08:52:30;;;;;;;7.38;5.53;;;7.20;99.90;;;;;;5112241;28;20902;-82
2022/02/14 08:54:56;;;;;;;7.17;4.73;;;7.30;99.90;;;;;;5112292;28;20420;-83
2022/02/14 08:57:23;;;;;;;6.57;4.70;;;7.40;99.90;;;;;;5093126;28;20430;-82
2022/02/14 08:59:50;;;;;;;6.68;4.18;;;7.50;99.90;;;;;;5110095;28;20375;-82
2022/02/14 09:02:16;;;;;;;6.10;3.87;;;7.60;99.90;;;;;;5084784;28;20480;-81
2022/02/14 09:04:41;;;;;;;5.40;3.93;;;7.70;99.90;;;;;;5092109;28;20376;-82
2022/02/14 09:07:07;;;;;;;6.13;4.00;;;7.80;99.90;;;;;;5093437;28;20373;-82
2022/02/14 09:09:33;;;;;;;5.45;3.65;;;7.90;99.90;;;;;;5091729;28;20757;-82
2022/02/14 09:12:02;;;;;;;6.55;4.00;;;8.10;99.90;;;;;;5093309;28;20400;-82
2022/02/14 09:14:28;;;;;;;8.52;3.90;;;8.20;99.90;;;;;;5098868;28;20391;-82
2022/02/14 09:16:53;;;;;;;5.78;3.72;;;8.20;99.90;;;;;;5113233;27;20367;-82
2022/02/14 09:19:20;;;;;;;6.50;3.85;;;8.30;99.90;;;;;;5113313;28;20498;-83
2022/02/14 09:21:46;;;;;;;6.47;3.70;;;8.40;99.90;;;;;;5112576;28;20821;-86
2022/02/14 09:24:12;;;;;;;6.03;3.72;;;8.50;99.90;;;;;;5095082;28;20379;-82
2022/02/14 09:26:39;;;;;;;7.13;3.60;;;8.70;99.90;;;;;;5091912;28;20386;-82
2022/02/14 09:29:05;;;;;;;6.70;3.80;;;8.70;99.90;;;;;;5077504;28;20750;-82
2022/02/14 09:31:30;;;;;;;5.28;3.53;;;8.90;99.90;;;;;;5090349;28;20378;-82
2022/02/14 09:33:56;;;;;;;5.33;3.63;;;8.90;99.90;;;;;;5104354;28;20917;-83
2022/02/14 09:36:22;;;;;;;5.18;3.67;;;9.10;99.90;;;;;;5094701;28;20383;-82
2022/02/14 09:38:49;;;;;;;5.75;3.97;;;9.10;99.90;;;;;;5112159;28;20402;-81
2022/02/14 09:41:16;;;;;;;4.88;3.47;;;9.20;99.90;;;;;;5110247;28;20386;-83
2022/02/14 09:43:47;;;;;;;8.13;3.83;;;9.10;99.90;;;;;;5107397;27;20385;-82
2022/02/14 09:46:13;;;;;;;5.22;3.70;;;9.20;99.90;;;;;;5104923;27;20423;-82
2022/02/14 09:48:41;;;;;;;5.50;3.88;;;9.20;99.90;;;;;;5091733;28;20388;-82
2022/02/14 09:51:07;;;;;;;5.25;3.90;;;9.40;99.90;;;;;;5086816;28;20461;-82
2022/02/14 09:53:33;;;;;;;7.80;3.70;;;9.50;99.90;;;;;;5109258;28;20529;-83
2022/02/14 09:55:59;;;;;;;7.03;3.88;;;9.70;99.90;;;;;;5111362;28;20869;-83
2022/02/14 09:58:25;;;;;;;6.00;3.60;;;9.70;99.90;;;;;;5106929;28;20390;-82
2022/02/14 10:00:51;;;;;;;6.07;3.67;;;9.90;99.90;;;;;;5130471;27;20773;-81
2022/02/14 10:03:19;;;;;;;5.80;3.57;;;9.90;99.90;;;;;;5126913;27;21209;-83
2022/02/14 10:05:47;;;;;;;6.68;3.50;;;10.00;99.90;;;;;;5112978;28;20461;-82
2022/02/14 10:08:21;;;;;;;4.80;3.38;;;9.90;99.90;;;;;;5113145;28;20757;-82
2022/02/14 10:10:48;;;;;;;9.88;4.03;;;9.90;99.90;;;;;;5113506;28;20371;-81
2022/02/14 10:13:51;;;;;;;5.78;3.47;;;9.90;99.90;;;;;;5112714;28;20399;-80
2022/02/14 10:16:18;;;;;;;5.78;3.65;;;9.90;99.90;;;;;;5051520;28;20455;-81
2022/02/14 10:18:43;;;;;;;7.65;3.70;;;9.90;99.90;;;;;;5112442;28;20389;-80
2022/02/14 10:21:27;;;;;;;6.57;3.37;;;10.00;99.90;;;;;;5091932;28;20379;-80
2022/02/14 10:24:10;;;;;;;6.30;3.50;;;10.00;99.90;;;;;;5107933;28;20414;-82
2022/02/14 10:26:40;;;;;;;7.50;3.70;;;10.10;99.90;;;;;;5092556;28;20443;-81
2022/02/14 10:29:20;;;;;;;7.35;3.60;;;10.10;99.90;;;;;;5109950;28;20371;-81
2022/02/14 10:31:48;;;;;;;6.13;3.40;;;10.10;99.90;;;;;;5094609;28;20443;-81
2022/02/14 10:34:14;;;;;;;7.10;4.00;;;10.10;99.90;;;;;;5110072;28;20556;-82
2022/02/14 10:36:42;;;;;;;6.25;3.63;;;10.30;99.90;;;;;;5108764;28;20896;-82
2022/02/14 10:39:20;;;;;;;6.18;3.80;;;10.40;99.90;;;;;;5091067;28;20898;-80
2022/02/14 10:41:56;;;;;;;7.70;3.80;;;10.30;99.90;;;;;;5094544;28;20382;-83
2022/02/14 10:47:15;;;;;;;9.32;4.30;;;10.40;99.90;;;;;;5114409;28;20463;-83
2022/02/14 10:49:42;;;;;;;5.97;3.80;;;10.30;99.90;;;;;;5095706;28;20386;-81
2022/02/14 10:52:13;;;;;;;6.03;3.40;;;10.50;99.90;;;;;;5115219;28;20382;-82
2022/02/14 10:54:41;;;;;;;8.65;3.78;;;10.50;99.90;;;;;;5114922;28;20362;-82
2022/02/14 10:57:22;;;;;;;5.28;3.50;;;10.60;99.90;;;;;;5096169;28;20394;-81
2022/02/14 10:59:59;;;;;;;7.65;3.83;;;10.80;99.90;;;;;;5113873;28;20374;-82
2022/02/14 11:02:25;;;;;;;9.32;3.47;;;10.80;99.90;;;;;;5113961;27;20371;-82
2022/02/14 11:04:50;;;;;;;5.00;3.07;;;10.90;99.90;;;;;;5113757;27;20401;-83
2022/02/14 11:07:18;;;;;;;6.27;3.87;;;10.90;99.90;;;;;;5112188;28;20427;-83
2022/02/14 11:09:46;;;;;;;7.97;3.90;;;11.00;99.90;;;;;;5094971;28;20892;-83
2022/02/14 11:12:12;;;;;;;6.45;3.53;;;11.00;99.90;;;;;;5113334;27;20945;-81
2022/02/14 11:14:44;;;;;;;7.43;3.45;;;11.10;99.90;;;;;;5113074;28;20371;-82
2022/02/14 11:17:12;;;;;;;6.32;3.63;;;11.30;99.90;;;;;;5113176;28;20390;-82
2022/02/14 11:19:42;;;;;;;6.40;4.72;;;11.50;99.90;;;;;;5094671;28;20379;-82
2022/02/14 11:22:09;;;;;;;5.38;3.75;;;11.60;99.90;;;;;;5111998;28;20394;-82
2022/02/14 11:24:39;;;;;;;8.18;3.88;;;11.80;99.90;;;;;;5113503;27;20413;-83
2022/02/14 11:27:09;;;;;;;8.02;4.07;;;11.90;99.90;;;;;;5094060;28;20394;-82
2022/02/14 11:29:47;;;;;;;6.32;3.70;;;11.90;99.90;;;;;;5093946;28;20382;-82
2022/02/14 11:32:19;;;;;;;7.00;3.80;;;12.00;99.90;;;;;;5094584;28;20393;-82
2022/02/14 11:35:06;;;;;;;5.88;4.03;;;12.00;99.90;;;;;;5112230;28;20815;-80
2022/02/14 11:37:51;;;;;;;4.63;3.20;;;12.10;99.90;;;;;;5116640;27;20381;-82
2022/02/14 11:40:39;;;;;;;5.28;3.65;;;12.20;99.90;;;;;;5113678;28;20379;-81
2022/02/14 11:43:23;;;;;;;6.32;3.60;;;12.20;99.90;;;;;;5109132;27;21320;-84
2022/02/14 11:46:08;;;;;;;4.72;2.90;;;12.20;99.80;;;;;;5088575;28;20382;-85
2022/02/14 11:48:34;;;;;;;5.90;3.30;;;12.10;99.90;;;;;;5081922;28;20399;-84
2022/02/14 11:51:10;;;;;;;5.47;3.50;;;12.10;99.90;;;;;;5092204;28;20383;-84
2022/02/14 11:53:42;;;;;;;6.07;3.50;;;12.10;99.90;;;;;;5109589;28;20402;-86
2022/02/14 11:56:23;;;;;;;5.22;3.65;;;12.00;99.90;;;;;;5100417;28;20395;-83
2022/02/14 11:59:00;;;;;;;7.03;3.90;;;12.20;99.90;;;;;;5101674;28;20391;-82
2022/02/14 12:01:28;;;;;;;4.78;3.10;;;12.30;99.90;;;;;;5107550;27;20388;-81
2022/02/14 12:04:14;;;;;;;8.88;3.85;;;12.20;99.90;;;;;;5112915;28;20416;-83
2022/02/14 12:07:19;;;;;;;6.90;3.40;;;12.10;99.90;;;;;;5096706;28;20490;-83
2022/02/14 12:09:57;;;;;;;5.82;3.28;;;12.10;99.90;;;;;;5080796;28;20407;-81
2022/02/14 12:12:45;;;;;;;6.40;4.00;;;12.20;99.90;;;;;;5091572;28;20379;-82
2022/02/14 12:20:40;;;;;;;6.07;3.00;;;12.30;99.90;;;;;;5119269;27;20397;-82
2022/02/14 12:23:06;;;;;;;6.38;3.45;;;12.30;99.90;;;;;;5112847;28;20378;-83
2022/02/14 12:25:33;;;;;;;6.45;3.45;;;12.40;99.90;;;;;;5113978;27;20391;-83
2022/02/14 12:27:59;;;;;;;5.87;3.40;;;12.40;99.90;;;;;;5100384;27;20465;-84
2022/02/14 12:30:26;;;;;;;5.35;3.22;;;12.60;99.90;;;;;;5128639;27;20417;-84
2022/02/14 12:33:02;;;;;;;6.78;3.05;;;12.60;99.90;;;;;;5096581;28;20395;-84
2022/02/14 12:35:38;;;;;;;6.75;3.50;;;13.00;99.90;;;;;;5106022;28;20994;-82
2022/02/14 12:38:05;;;;;;;7.90;3.60;;;13.00;99.90;;;;;;5091448;28;20415;-85
2022/02/14 12:40:52;;;;;;;6.03;3.28;;;13.10;99.90;;;;;;5093314;28;20391;-86
2022/02/14 12:43:33;;;;;;;8.57;3.22;;;13.10;99.90;;;;;;5086655;28;20959;-80
2022/02/14 12:46:07;;;;;;;8.48;4.10;;;13.20;99.90;;;;;;5109061;28;20385;-83
2022/02/14 12:48:44;;;;;;;5.43;3.90;;;13.20;99.90;;;;;;5111253;27;20715;-80
2022/02/14 12:51:12;;;;;;;6.15;3.38;;;13.10;99.90;;;;;;5130140;27;20369;-84
2022/02/14 12:53:43;;;;;;;7.43;3.92;;;13.10;99.90;;;;;;5097784;28;20407;-84
2022/02/14 12:56:18;;;;;;;5.05;3.15;;;13.10;99.90;;;;;;5089444;28;20390;-83
2022/02/14 12:58:57;;;;;;;6.25;4.10;;;13.00;99.90;;;;;;5111227;28;20383;-83
2022/02/14 13:01:26;;;;;;;6.00;3.45;;;13.00;99.90;;;;;;5111392;28;20406;-82
2022/02/14 13:04:00;;;;;;;6.03;3.35;;;12.90;99.90;;;;;;5110982;28;20397;-82